sensor_id;sensor_type;location;lat;lon;timestamp;P1;durP1;ratioP1;P2;durP2;ratioP2
51618;SDS011;38518;53.164;5.430;2022-12-31T00:01:23;38.03;;;6.90;;
51618;SDS011;38518;53.164;5.430;2022-12-31T00:03:50;39.03;;;7.38;;
51618;SDS011;38518;53.164;5.430;2022-12-31T00:06:23;44.78;;;8.77;;
51618;SDS011;38518;53.164;5.430;2022-12-31T00:09:00;43.45;;;8.13;;
51618;SDS011;38518;53.164;5.430;2022-12-31T00:11:28;34.78;;;8.27;;
51618;SDS011;38518;53.164;5.430;2022-12-31T00:13:55;51.15;;;8.35;;
51618;SDS011;38518;53.164;5.430;2022-12-31T00:16:23;46.33;;;8.07;;
51618;SDS011;38518;53.164;5.430;2022-12-31T00:18:53;38.10;;;6.35;;
51618;SDS011;38518;53.164;5.430;2022-12-31T00:21:20;48.33;;;8.20;;
51618;SDS011;38518;53.164;5.430;2022-12-31T00:23:47;36.72;;;6.38;;
51618;SDS011;38518;53.164;5.430;2022-12-31T00:26:14;35.15;;;6.78;;
51618;SDS011;38518;53.164;5.430;2022-12-31T00:28:42;41.80;;;8.10;;
51618;SDS011;38518;53.164;5.430;2022-12-31T00:31:13;33.58;;;7.38;;
51618;SDS011;38518;53.164;5.430;2022-12-31T00:33:43;41.08;;;6.28;;
51618;SDS011;38518;53.164;5.430;2022-12-31T00:36:14;37.05;;;7.55;;
51618;SDS011;38518;53.164;5.430;2022-12-31T00:38:43;44.67;;;8.35;;
51618;SDS011;38518;53.164;5.430;2022-12-31T00:41:10;51.67;;;8.80;;
51618;SDS011;38518;53.164;5.430;2022-12-31T00:43:37;51.03;;;9.00;;
51618;SDS011;38518;53.164;5.430;2022-12-31T00:46:03;49.53;;;9.30;;
51618;SDS011;38518;53.164;5.430;2022-12-31T00:48:29;57.60;;;9.07;;
51618;SDS011;38518;53.164;5.430;2022-12-31T00:50:56;40.55;;;7.60;;
51618;SDS011;38518;53.164;5.430;2022-12-31T00:53:23;47.70;;;8.25;;
51618;SDS011;38518;53.164;5.430;2022-12-31T00:55:49;41.22;;;8.75;;
51618;SDS011;38518;53.164;5.430;2022-12-31T00:58:15;42.17;;;7.05;;
51618;SDS011;38518;53.164;5.430;2022-12-31T01:00:41;41.13;;;7.38;;
51618;SDS011;38518;53.164;5.430;2022-12-31T01:03:07;44.47;;;7.88;;
51618;SDS011;38518;53.164;5.430;2022-12-31T01:05:34;44.78;;;8.43;;
51618;SDS011;38518;53.164;5.430;2022-12-31T01:08:01;47.67;;;8.85;;
51618;SDS011;38518;53.164;5.430;2022-12-31T01:10:27;49.10;;;8.80;;
51618;SDS011;38518;53.164;5.430;2022-12-31T01:13:12;43.08;;;7.90;;
51618;SDS011;38518;53.164;5.430;2022-12-31T01:15:38;49.60;;;8.73;;
51618;SDS011;38518;53.164;5.430;2022-12-31T01:18:05;49.75;;;7.80;;
51618;SDS011;38518;53.164;5.430;2022-12-31T01:20:36;31.23;;;7.35;;
51618;SDS011;38518;53.164;5.430;2022-12-31T01:23:03;35.75;;;6.55;;
51618;SDS011;38518;53.164;5.430;2022-12-31T01:25:33;47.45;;;8.13;;
51618;SDS011;38518;53.164;5.430;2022-12-31T01:28:00;42.25;;;6.93;;
51618;SDS011;38518;53.164;5.430;2022-12-31T01:30:26;32.53;;;6.97;;
51618;SDS011;38518;53.164;5.430;2022-12-31T01:32:52;39.70;;;7.47;;
51618;SDS011;38518;53.164;5.430;2022-12-31T01:35:18;37.45;;;6.75;;
51618;SDS011;38518;53.164;5.430;2022-12-31T01:37:44;36.33;;;6.43;;
51618;SDS011;38518;53.164;5.430;2022-12-31T01:40:10;42.10;;;7.18;;
51618;SDS011;38518;53.164;5.430;2022-12-31T01:42:36;37.13;;;7.10;;
51618;SDS011;38518;53.164;5.430;2022-12-31T01:45:02;26.83;;;5.15;;
51618;SDS011;38518;53.164;5.430;2022-12-31T01:47:37;36.47;;;6.57;;
51618;SDS011;38518;53.164;5.430;2022-12-31T01:50:17;30.40;;;5.40;;
51618;SDS011;38518;53.164;5.430;2022-12-31T01:52:50;23.27;;;5.47;;
51618;SDS011;38518;53.164;5.430;2022-12-31T01:55:42;39.70;;;6.18;;
51618;SDS011;38518;53.164;5.430;2022-12-31T01:58:14;40.15;;;6.93;;
51618;SDS011;38518;53.164;5.430;2022-12-31T02:00:48;28.83;;;4.43;;
51618;SDS011;38518;53.164;5.430;2022-12-31T02:03:16;29.05;;;5.20;;
51618;SDS011;38518;53.164;5.430;2022-12-31T02:08:36;28.55;;;5.57;;
51618;SDS011;38518;53.164;5.430;2022-12-31T02:13:50;22.98;;;4.00;;
51618;SDS011;38518;53.164;5.430;2022-12-31T02:16:39;27.42;;;5.50;;
51618;SDS011;38518;53.164;5.430;2022-12-31T02:30:20;30.55;;;5.78;;
51618;SDS011;38518;53.164;5.430;2022-12-31T02:33:01;23.13;;;5.05;;
51618;SDS011;38518;53.164;5.430;2022-12-31T02:35:54;27.65;;;5.70;;
51618;SDS011;38518;53.164;5.430;2022-12-31T02:38:27;24.40;;;5.60;;
51618;SDS011;38518;53.164;5.430;2022-12-31T02:40:57;30.90;;;5.13;;
51618;SDS011;38518;53.164;5.430;2022-12-31T02:43:23;28.10;;;5.38;;
51618;SDS011;38518;53.164;5.430;2022-12-31T02:45:53;21.85;;;5.03;;
51618;SDS011;38518;53.164;5.430;2022-12-31T02:51:34;25.20;;;4.13;;
51618;SDS011;38518;53.164;5.430;2022-12-31T02:56:50;27.25;;;4.90;;
51618;SDS011;38518;53.164;5.430;2022-12-31T03:02:39;23.23;;;3.65;;
51618;SDS011;38518;53.164;5.430;2022-12-31T03:05:07;26.13;;;5.00;;
51618;SDS011;38518;53.164;5.430;2022-12-31T03:07:35;22.58;;;5.25;;
51618;SDS011;38518;53.164;5.430;2022-12-31T03:10:03;26.08;;;4.20;;
51618;SDS011;38518;53.164;5.430;2022-12-31T03:12:30;24.35;;;4.82;;
51618;SDS011;38518;53.164;5.430;2022-12-31T03:15:12;25.48;;;4.82;;
51618;SDS011;38518;53.164;5.430;2022-12-31T03:17:57;17.58;;;3.33;;
51618;SDS011;38518;53.164;5.430;2022-12-31T03:20:24;23.73;;;3.70;;
51618;SDS011;38518;53.164;5.430;2022-12-31T03:23:12;22.10;;;4.68;;
51618;SDS011;38518;53.164;5.430;2022-12-31T03:25:39;21.10;;;4.20;;
51618;SDS011;38518;53.164;5.430;2022-12-31T03:28:09;19.13;;;4.22;;
51618;SDS011;38518;53.164;5.430;2022-12-31T03:30:38;21.10;;;4.28;;
51618;SDS011;38518;53.164;5.430;2022-12-31T03:33:06;18.02;;;3.13;;
51618;SDS011;38518;53.164;5.430;2022-12-31T03:35:33;21.15;;;4.40;;
51618;SDS011;38518;53.164;5.430;2022-12-31T03:38:00;17.88;;;4.28;;
51618;SDS011;38518;53.164;5.430;2022-12-31T03:40:27;18.10;;;4.22;;
51618;SDS011;38518;53.164;5.430;2022-12-31T03:42:54;17.27;;;3.83;;
51618;SDS011;38518;53.164;5.430;2022-12-31T03:45:20;13.18;;;3.10;;
51618;SDS011;38518;53.164;5.430;2022-12-31T03:47:46;18.42;;;4.03;;
51618;SDS011;38518;53.164;5.430;2022-12-31T03:50:13;17.45;;;3.80;;
51618;SDS011;38518;53.164;5.430;2022-12-31T03:52:40;23.10;;;3.65;;
51618;SDS011;38518;53.164;5.430;2022-12-31T03:55:06;14.38;;;2.88;;
51618;SDS011;38518;53.164;5.430;2022-12-31T03:57:32;16.23;;;4.20;;
51618;SDS011;38518;53.164;5.430;2022-12-31T03:59:58;18.15;;;4.15;;
51618;SDS011;38518;53.164;5.430;2022-12-31T04:02:24;20.27;;;3.92;;
51618;SDS011;38518;53.164;5.430;2022-12-31T04:04:51;17.58;;;3.47;;
51618;SDS011;38518;53.164;5.430;2022-12-31T04:07:16;21.88;;;4.32;;
51618;SDS011;38518;53.164;5.430;2022-12-31T04:09:42;21.88;;;3.25;;
51618;SDS011;38518;53.164;5.430;2022-12-31T04:12:08;19.88;;;3.95;;
51618;SDS011;38518;53.164;5.430;2022-12-31T04:14:34;18.23;;;3.92;;
51618;SDS011;38518;53.164;5.430;2022-12-31T04:17:00;18.98;;;3.50;;
51618;SDS011;38518;53.164;5.430;2022-12-31T04:19:25;22.35;;;3.95;;
51618;SDS011;38518;53.164;5.430;2022-12-31T04:21:51;17.83;;;3.35;;
51618;SDS011;38518;53.164;5.430;2022-12-31T04:24:17;14.48;;;3.72;;
51618;SDS011;38518;53.164;5.430;2022-12-31T04:26:43;18.38;;;3.13;;
51618;SDS011;38518;53.164;5.430;2022-12-31T04:29:09;16.77;;;3.17;;
51618;SDS011;38518;53.164;5.430;2022-12-31T04:31:35;14.02;;;2.97;;
51618;SDS011;38518;53.164;5.430;2022-12-31T04:34:01;20.48;;;4.20;;
51618;SDS011;38518;53.164;5.430;2022-12-31T04:36:27;15.90;;;2.58;;
51618;SDS011;38518;53.164;5.430;2022-12-31T04:38:53;21.95;;;3.80;;
51618;SDS011;38518;53.164;5.430;2022-12-31T04:41:19;15.23;;;3.90;;
51618;SDS011;38518;53.164;5.430;2022-12-31T04:43:49;18.75;;;3.70;;
51618;SDS011;38518;53.164;5.430;2022-12-31T04:46:18;26.92;;;4.57;;
51618;SDS011;38518;53.164;5.430;2022-12-31T04:48:54;26.67;;;4.80;;
51618;SDS011;38518;53.164;5.430;2022-12-31T04:51:20;21.20;;;4.80;;
51618;SDS011;38518;53.164;5.430;2022-12-31T04:53:47;21.25;;;3.88;;
51618;SDS011;38518;53.164;5.430;2022-12-31T04:56:13;19.30;;;2.80;;
51618;SDS011;38518;53.164;5.430;2022-12-31T04:58:40;19.70;;;4.13;;
51618;SDS011;38518;53.164;5.430;2022-12-31T05:01:06;19.70;;;3.72;;
51618;SDS011;38518;53.164;5.430;2022-12-31T05:03:33;19.42;;;3.92;;
51618;SDS011;38518;53.164;5.430;2022-12-31T05:06:00;20.42;;;4.03;;
51618;SDS011;38518;53.164;5.430;2022-12-31T05:08:30;18.65;;;3.88;;
51618;SDS011;38518;53.164;5.430;2022-12-31T05:10:56;18.02;;;3.28;;
51618;SDS011;38518;53.164;5.430;2022-12-31T05:13:22;18.88;;;3.67;;
51618;SDS011;38518;53.164;5.430;2022-12-31T05:15:48;22.10;;;4.70;;
51618;SDS011;38518;53.164;5.430;2022-12-31T05:18:15;20.50;;;4.65;;
51618;SDS011;38518;53.164;5.430;2022-12-31T05:20:40;18.83;;;4.30;;
51618;SDS011;38518;53.164;5.430;2022-12-31T05:23:06;17.15;;;3.80;;
51618;SDS011;38518;53.164;5.430;2022-12-31T05:25:32;16.02;;;4.18;;
51618;SDS011;38518;53.164;5.430;2022-12-31T05:27:58;23.13;;;4.65;;
51618;SDS011;38518;53.164;5.430;2022-12-31T05:30:24;12.65;;;3.38;;
51618;SDS011;38518;53.164;5.430;2022-12-31T05:32:50;15.02;;;3.67;;
51618;SDS011;38518;53.164;5.430;2022-12-31T05:35:16;19.27;;;4.13;;
51618;SDS011;38518;53.164;5.430;2022-12-31T05:37:42;16.40;;;3.80;;
51618;SDS011;38518;53.164;5.430;2022-12-31T05:40:08;23.88;;;4.50;;
51618;SDS011;38518;53.164;5.430;2022-12-31T05:42:35;25.55;;;5.00;;
51618;SDS011;38518;53.164;5.430;2022-12-31T05:45:01;26.38;;;5.18;;
51618;SDS011;38518;53.164;5.430;2022-12-31T05:47:30;24.30;;;4.88;;
51618;SDS011;38518;53.164;5.430;2022-12-31T05:49:55;18.67;;;4.38;;
51618;SDS011;38518;53.164;5.430;2022-12-31T05:52:21;26.40;;;6.45;;
51618;SDS011;38518;53.164;5.430;2022-12-31T05:54:47;26.92;;;6.85;;
51618;SDS011;38518;53.164;5.430;2022-12-31T05:57:13;28.98;;;8.60;;
51618;SDS011;38518;53.164;5.430;2022-12-31T05:59:39;24.90;;;6.72;;
51618;SDS011;38518;53.164;5.430;2022-12-31T06:02:05;32.22;;;6.85;;
51618;SDS011;38518;53.164;5.430;2022-12-31T06:04:31;32.42;;;10.43;;
51618;SDS011;38518;53.164;5.430;2022-12-31T06:06:56;19.90;;;7.53;;
51618;SDS011;38518;53.164;5.430;2022-12-31T06:09:22;27.00;;;8.60;;
51618;SDS011;38518;53.164;5.430;2022-12-31T06:11:48;35.33;;;8.65;;
51618;SDS011;38518;53.164;5.430;2022-12-31T06:14:14;25.70;;;6.35;;
51618;SDS011;38518;53.164;5.430;2022-12-31T06:16:40;25.45;;;6.90;;
51618;SDS011;38518;53.164;5.430;2022-12-31T06:19:06;28.27;;;7.85;;
51618;SDS011;38518;53.164;5.430;2022-12-31T06:21:32;19.50;;;4.68;;
51618;SDS011;38518;53.164;5.430;2022-12-31T06:23:58;18.25;;;4.25;;
51618;SDS011;38518;53.164;5.430;2022-12-31T06:26:25;19.75;;;4.88;;
51618;SDS011;38518;53.164;5.430;2022-12-31T06:28:51;17.73;;;3.92;;
51618;SDS011;38518;53.164;5.430;2022-12-31T06:31:17;14.55;;;2.63;;
51618;SDS011;38518;53.164;5.430;2022-12-31T06:33:43;17.05;;;3.15;;
51618;SDS011;38518;53.164;5.430;2022-12-31T06:36:11;27.80;;;4.55;;
51618;SDS011;38518;53.164;5.430;2022-12-31T06:38:39;17.10;;;4.75;;
51618;SDS011;38518;53.164;5.430;2022-12-31T06:41:07;17.58;;;4.30;;
51618;SDS011;38518;53.164;5.430;2022-12-31T06:43:34;17.00;;;5.03;;
51618;SDS011;38518;53.164;5.430;2022-12-31T06:46:02;14.90;;;3.75;;
51618;SDS011;38518;53.164;5.430;2022-12-31T06:48:29;14.30;;;3.63;;
51618;SDS011;38518;53.164;5.430;2022-12-31T06:50:54;13.15;;;2.70;;
51618;SDS011;38518;53.164;5.430;2022-12-31T06:53:20;15.52;;;3.88;;
51618;SDS011;38518;53.164;5.430;2022-12-31T06:55:47;19.58;;;3.70;;
51618;SDS011;38518;53.164;5.430;2022-12-31T06:58:14;15.95;;;3.88;;
51618;SDS011;38518;53.164;5.430;2022-12-31T07:06:45;12.65;;;3.10;;
51618;SDS011;38518;53.164;5.430;2022-12-31T07:09:20;10.65;;;2.78;;
51618;SDS011;38518;53.164;5.430;2022-12-31T07:14:35;8.27;;;2.67;;
51618;SDS011;38518;53.164;5.430;2022-12-31T07:20:11;8.85;;;3.03;;
51618;SDS011;38518;53.164;5.430;2022-12-31T07:22:39;7.97;;;2.92;;
51618;SDS011;38518;53.164;5.430;2022-12-31T07:25:05;4.93;;;2.30;;
51618;SDS011;38518;53.164;5.430;2022-12-31T07:27:40;7.22;;;3.03;;
51618;SDS011;38518;53.164;5.430;2022-12-31T07:43:46;11.43;;;7.70;;
51618;SDS011;38518;53.164;5.430;2022-12-31T07:46:27;13.52;;;8.70;;
51618;SDS011;38518;53.164;5.430;2022-12-31T07:48:56;14.85;;;9.57;;
51618;SDS011;38518;53.164;5.430;2022-12-31T07:51:22;22.27;;;13.32;;
51618;SDS011;38518;53.164;5.430;2022-12-31T07:53:48;22.40;;;11.45;;
51618;SDS011;38518;53.164;5.430;2022-12-31T07:56:14;18.85;;;12.73;;
51618;SDS011;38518;53.164;5.430;2022-12-31T08:01:59;26.13;;;14.20;;
51618;SDS011;38518;53.164;5.430;2022-12-31T08:07:22;30.92;;;15.43;;
51618;SDS011;38518;53.164;5.430;2022-12-31T08:10:36;20.80;;;14.38;;
51618;SDS011;38518;53.164;5.430;2022-12-31T08:16:13;19.73;;;12.73;;
51618;SDS011;38518;53.164;5.430;2022-12-31T08:18:42;16.27;;;11.80;;
51618;SDS011;38518;53.164;5.430;2022-12-31T08:24:06;15.82;;;12.77;;
51618;SDS011;38518;53.164;5.430;2022-12-31T08:32:07;21.70;;;14.63;;
51618;SDS011;38518;53.164;5.430;2022-12-31T08:37:19;16.45;;;10.93;;
51618;SDS011;38518;53.164;5.430;2022-12-31T08:43:05;15.35;;;10.55;;
51618;SDS011;38518;53.164;5.430;2022-12-31T08:45:51;16.23;;;8.95;;
51618;SDS011;38518;53.164;5.430;2022-12-31T08:48:24;15.25;;;9.27;;
51618;SDS011;38518;53.164;5.430;2022-12-31T08:53:29;12.70;;;7.03;;
51618;SDS011;38518;53.164;5.430;2022-12-31T09:04:44;11.85;;;2.92;;
51618;SDS011;38518;53.164;5.430;2022-12-31T09:07:29;9.48;;;2.72;;
51618;SDS011;38518;53.164;5.430;2022-12-31T09:15:53;18.50;;;4.57;;
51618;SDS011;38518;53.164;5.430;2022-12-31T09:18:33;13.00;;;2.80;;
51618;SDS011;38518;53.164;5.430;2022-12-31T09:21:04;15.98;;;3.70;;
51618;SDS011;38518;53.164;5.430;2022-12-31T09:23:30;10.85;;;2.58;;
51618;SDS011;38518;53.164;5.430;2022-12-31T09:26:03;8.40;;;2.67;;
51618;SDS011;38518;53.164;5.430;2022-12-31T09:29:09;15.27;;;3.08;;
51618;SDS011;38518;53.164;5.430;2022-12-31T09:31:48;15.93;;;2.97;;
51618;SDS011;38518;53.164;5.430;2022-12-31T09:37:13;13.57;;;2.72;;
51618;SDS011;38518;53.164;5.430;2022-12-31T09:39:43;11.60;;;2.53;;
51618;SDS011;38518;53.164;5.430;2022-12-31T10:01:33;19.30;;;3.70;;
51618;SDS011;38518;53.164;5.430;2022-12-31T10:09:58;21.92;;;4.90;;
51618;SDS011;38518;53.164;5.430;2022-12-31T10:24:03;19.38;;;4.85;;
51618;SDS011;38518;53.164;5.430;2022-12-31T10:43:51;22.70;;;5.45;;
51618;SDS011;38518;53.164;5.430;2022-12-31T10:46:54;22.73;;;4.18;;
51618;SDS011;38518;53.164;5.430;2022-12-31T10:49:30;26.02;;;5.93;;
51618;SDS011;38518;53.164;5.430;2022-12-31T11:00:26;27.08;;;6.63;;
51618;SDS011;38518;53.164;5.430;2022-12-31T11:08:38;25.65;;;5.70;;
51618;SDS011;38518;53.164;5.430;2022-12-31T11:11:19;27.67;;;6.25;;
51618;SDS011;38518;53.164;5.430;2022-12-31T11:13:57;23.90;;;5.65;;
51618;SDS011;38518;53.164;5.430;2022-12-31T11:28:01;24.73;;;5.10;;
51618;SDS011;38518;53.164;5.430;2022-12-31T11:30:50;22.38;;;4.70;;
51618;SDS011;38518;53.164;5.430;2022-12-31T11:36:35;30.98;;;7.05;;
51618;SDS011;38518;53.164;5.430;2022-12-31T11:42:18;26.38;;;6.10;;
51618;SDS011;38518;53.164;5.430;2022-12-31T11:50:41;23.55;;;4.95;;
51618;SDS011;38518;53.164;5.430;2022-12-31T11:56:15;25.45;;;5.32;;
51618;SDS011;38518;53.164;5.430;2022-12-31T11:58:52;22.20;;;4.60;;
51618;SDS011;38518;53.164;5.430;2022-12-31T12:01:31;21.67;;;5.32;;
51618;SDS011;38518;53.164;5.430;2022-12-31T12:04:00;21.30;;;5.47;;
51618;SDS011;38518;53.164;5.430;2022-12-31T12:06:29;31.48;;;7.32;;
51618;SDS011;38518;53.164;5.430;2022-12-31T12:09:04;22.13;;;5.75;;
51618;SDS011;38518;53.164;5.430;2022-12-31T12:11:36;26.52;;;6.45;;
51618;SDS011;38518;53.164;5.430;2022-12-31T12:14:20;30.67;;;7.03;;
51618;SDS011;38518;53.164;5.430;2022-12-31T12:16:54;21.67;;;5.00;;
51618;SDS011;38518;53.164;5.430;2022-12-31T12:19:22;31.10;;;7.15;;
51618;SDS011;38518;53.164;5.430;2022-12-31T12:21:51;31.30;;;7.45;;
51618;SDS011;38518;53.164;5.430;2022-12-31T12:26:44;21.10;;;5.47;;
51618;SDS011;38518;53.164;5.430;2022-12-31T12:29:11;29.88;;;5.68;;
51618;SDS011;38518;53.164;5.430;2022-12-31T12:31:41;28.30;;;6.25;;
51618;SDS011;38518;53.164;5.430;2022-12-31T12:34:27;27.10;;;6.93;;
51618;SDS011;38518;53.164;5.430;2022-12-31T12:37:01;30.05;;;5.88;;
51618;SDS011;38518;53.164;5.430;2022-12-31T12:39:29;30.35;;;6.50;;
51618;SDS011;38518;53.164;5.430;2022-12-31T12:44:27;30.52;;;6.00;;
51618;SDS011;38518;53.164;5.430;2022-12-31T12:46:54;19.50;;;4.35;;
51618;SDS011;38518;53.164;5.430;2022-12-31T12:55:18;29.35;;;6.50;;
51618;SDS011;38518;53.164;5.430;2022-12-31T13:00:58;22.13;;;5.30;;
51618;SDS011;38518;53.164;5.430;2022-12-31T13:14:52;30.25;;;6.70;;
51618;SDS011;38518;53.164;5.430;2022-12-31T13:17:48;22.17;;;6.10;;
51618;SDS011;38518;53.164;5.430;2022-12-31T13:20:34;35.40;;;7.57;;
51618;SDS011;38518;53.164;5.430;2022-12-31T13:23:17;36.65;;;7.60;;
51618;SDS011;38518;53.164;5.430;2022-12-31T13:25:54;42.63;;;8.45;;
51618;SDS011;38518;53.164;5.430;2022-12-31T13:28:35;27.83;;;6.40;;
51618;SDS011;38518;53.164;5.430;2022-12-31T13:31:08;32.42;;;6.97;;
51618;SDS011;38518;53.164;5.430;2022-12-31T13:33:42;35.00;;;5.78;;
51618;SDS011;38518;53.164;5.430;2022-12-31T13:36:16;35.70;;;6.70;;
51618;SDS011;38518;53.164;5.430;2022-12-31T13:38:46;32.97;;;6.90;;
51618;SDS011;38518;53.164;5.430;2022-12-31T13:41:24;30.92;;;6.53;;
51618;SDS011;38518;53.164;5.430;2022-12-31T13:43:59;27.27;;;4.45;;
51618;SDS011;38518;53.164;5.430;2022-12-31T13:46:41;33.70;;;5.82;;
51618;SDS011;38518;53.164;5.430;2022-12-31T13:49:19;31.08;;;5.80;;
51618;SDS011;38518;53.164;5.430;2022-12-31T13:51:56;31.35;;;6.40;;
51618;SDS011;38518;53.164;5.430;2022-12-31T13:57:29;32.83;;;4.95;;
51618;SDS011;38518;53.164;5.430;2022-12-31T14:00:19;31.80;;;5.85;;
51618;SDS011;38518;53.164;5.430;2022-12-31T14:03:00;38.80;;;6.65;;
51618;SDS011;38518;53.164;5.430;2022-12-31T14:05:40;30.52;;;5.68;;
51618;SDS011;38518;53.164;5.430;2022-12-31T14:08:14;30.83;;;6.13;;
51618;SDS011;38518;53.164;5.430;2022-12-31T14:16:56;24.10;;;5.82;;
51618;SDS011;38518;53.164;5.430;2022-12-31T14:19:34;20.70;;;4.68;;
51618;SDS011;38518;53.164;5.430;2022-12-31T14:22:25;24.33;;;5.45;;
51618;SDS011;38518;53.164;5.430;2022-12-31T14:28:01;16.75;;;4.60;;
51618;SDS011;38518;53.164;5.430;2022-12-31T14:30:30;18.08;;;2.80;;
51618;SDS011;38518;53.164;5.430;2022-12-31T14:33:10;25.67;;;5.20;;
51618;SDS011;38518;53.164;5.430;2022-12-31T14:39:33;21.75;;;4.63;;
51618;SDS011;38518;53.164;5.430;2022-12-31T14:44:19;23.80;;;4.40;;
51618;SDS011;38518;53.164;5.430;2022-12-31T14:52:34;25.35;;;3.55;;
51618;SDS011;38518;53.164;5.430;2022-12-31T14:55:27;19.42;;;3.80;;
51618;SDS011;38518;53.164;5.430;2022-12-31T14:57:59;21.20;;;3.65;;
51618;SDS011;38518;53.164;5.430;2022-12-31T15:00:28;29.00;;;4.30;;
51618;SDS011;38518;53.164;5.430;2022-12-31T15:05:29;28.77;;;4.88;;
51618;SDS011;38518;53.164;5.430;2022-12-31T15:08:01;29.48;;;4.20;;
51618;SDS011;38518;53.164;5.430;2022-12-31T15:16:39;22.73;;;3.92;;
51618;SDS011;38518;53.164;5.430;2022-12-31T15:19:01;43.05;;;5.25;;
51618;SDS011;38518;53.164;5.430;2022-12-31T15:24:23;30.08;;;4.32;;
51618;SDS011;38518;53.164;5.430;2022-12-31T15:26:57;20.67;;;3.40;;
51618;SDS011;38518;53.164;5.430;2022-12-31T15:29:28;33.67;;;6.03;;
51618;SDS011;38518;53.164;5.430;2022-12-31T15:31:56;28.70;;;7.80;;
51618;SDS011;38518;53.164;5.430;2022-12-31T15:34:31;21.30;;;6.20;;
51618;SDS011;38518;53.164;5.430;2022-12-31T15:37:02;26.33;;;6.13;;
51618;SDS011;38518;53.164;5.430;2022-12-31T15:41:55;37.55;;;7.68;;
51618;SDS011;38518;53.164;5.430;2022-12-31T15:47:07;32.63;;;6.40;;
51618;SDS011;38518;53.164;5.430;2022-12-31T15:49:43;35.42;;;7.97;;
51618;SDS011;38518;53.164;5.430;2022-12-31T15:52:15;41.88;;;9.77;;
51618;SDS011;38518;53.164;5.430;2022-12-31T15:54:47;32.83;;;7.18;;
51618;SDS011;38518;53.164;5.430;2022-12-31T15:57:19;37.95;;;9.30;;
51618;SDS011;38518;53.164;5.430;2022-12-31T15:59:58;37.65;;;8.60;;
51618;SDS011;38518;53.164;5.430;2022-12-31T16:02:25;38.30;;;8.73;;
51618;SDS011;38518;53.164;5.430;2022-12-31T16:04:52;37.67;;;9.02;;
51618;SDS011;38518;53.164;5.430;2022-12-31T16:07:20;39.15;;;9.23;;
51618;SDS011;38518;53.164;5.430;2022-12-31T16:09:54;33.15;;;7.75;;
51618;SDS011;38518;53.164;5.430;2022-12-31T16:14:50;39.78;;;8.68;;
51618;SDS011;38518;53.164;5.430;2022-12-31T16:17:32;41.08;;;8.05;;
51618;SDS011;38518;53.164;5.430;2022-12-31T16:20:00;29.55;;;7.00;;
51618;SDS011;38518;53.164;5.430;2022-12-31T16:22:48;29.42;;;5.78;;
51618;SDS011;38518;53.164;5.430;2022-12-31T16:25:21;25.80;;;6.55;;
51618;SDS011;38518;53.164;5.430;2022-12-31T16:27:49;33.30;;;7.57;;
51618;SDS011;38518;53.164;5.430;2022-12-31T16:30:26;34.55;;;8.18;;
51618;SDS011;38518;53.164;5.430;2022-12-31T16:32:55;26.00;;;6.85;;
51618;SDS011;38518;53.164;5.430;2022-12-31T16:35:36;45.33;;;8.93;;
51618;SDS011;38518;53.164;5.430;2022-12-31T16:38:16;37.50;;;8.68;;
51618;SDS011;38518;53.164;5.430;2022-12-31T16:43:37;38.22;;;8.90;;
51618;SDS011;38518;53.164;5.430;2022-12-31T16:46:09;49.08;;;9.38;;
51618;SDS011;38518;53.164;5.430;2022-12-31T16:48:59;45.22;;;8.45;;
51618;SDS011;38518;53.164;5.430;2022-12-31T16:51:31;49.53;;;8.40;;
51618;SDS011;38518;53.164;5.430;2022-12-31T16:54:01;43.17;;;9.15;;
51618;SDS011;38518;53.164;5.430;2022-12-31T16:56:31;40.78;;;8.50;;
51618;SDS011;38518;53.164;5.430;2022-12-31T16:59:01;32.80;;;5.70;;
51618;SDS011;38518;53.164;5.430;2022-12-31T17:01:32;35.28;;;7.53;;
51618;SDS011;38518;53.164;5.430;2022-12-31T17:04:05;28.10;;;6.28;;
51618;SDS011;38518;53.164;5.430;2022-12-31T17:06:35;27.43;;;6.50;;
51618;SDS011;38518;53.164;5.430;2022-12-31T17:09:14;23.83;;;6.72;;
51618;SDS011;38518;53.164;5.430;2022-12-31T17:11:49;34.42;;;8.07;;
51618;SDS011;38518;53.164;5.430;2022-12-31T17:14:18;33.67;;;7.47;;
51618;SDS011;38518;53.164;5.430;2022-12-31T17:25:04;24.52;;;6.50;;
51618;SDS011;38518;53.164;5.430;2022-12-31T17:27:33;27.85;;;6.18;;
51618;SDS011;38518;53.164;5.430;2022-12-31T17:32:51;33.42;;;7.55;;
51618;SDS011;38518;53.164;5.430;2022-12-31T17:35:36;26.92;;;6.78;;
51618;SDS011;38518;53.164;5.430;2022-12-31T17:40:51;25.08;;;7.45;;
51618;SDS011;38518;53.164;5.430;2022-12-31T17:43:19;29.20;;;6.95;;
51618;SDS011;38518;53.164;5.430;2022-12-31T17:45:47;20.23;;;6.18;;
51618;SDS011;38518;53.164;5.430;2022-12-31T17:48:16;25.70;;;8.90;;
51618;SDS011;38518;53.164;5.430;2022-12-31T17:50:49;22.42;;;9.05;;
51618;SDS011;38518;53.164;5.430;2022-12-31T17:53:17;24.02;;;8.65;;
51618;SDS011;38518;53.164;5.430;2022-12-31T17:55:44;22.88;;;8.80;;
51618;SDS011;38518;53.164;5.430;2022-12-31T17:58:20;22.75;;;9.95;;
51618;SDS011;38518;53.164;5.430;2022-12-31T18:00:58;23.50;;;10.45;;
51618;SDS011;38518;53.164;5.430;2022-12-31T18:03:25;26.50;;;12.98;;
51618;SDS011;38518;53.164;5.430;2022-12-31T18:05:51;30.55;;;20.17;;
51618;SDS011;38518;53.164;5.430;2022-12-31T18:08:16;34.78;;;17.02;;
51618;SDS011;38518;53.164;5.430;2022-12-31T18:10:42;22.70;;;13.05;;
51618;SDS011;38518;53.164;5.430;2022-12-31T18:13:19;24.20;;;11.95;;
51618;SDS011;38518;53.164;5.430;2022-12-31T18:15:47;27.40;;;11.48;;
51618;SDS011;38518;53.164;5.430;2022-12-31T18:20:50;26.48;;;12.68;;
51618;SDS011;38518;53.164;5.430;2022-12-31T18:23:39;22.42;;;12.15;;
51618;SDS011;38518;53.164;5.430;2022-12-31T18:26:13;23.58;;;10.65;;
51618;SDS011;38518;53.164;5.430;2022-12-31T18:28:41;32.33;;;21.45;;
51618;SDS011;38518;53.164;5.430;2022-12-31T18:31:21;34.50;;;19.60;;
51618;SDS011;38518;53.164;5.430;2022-12-31T18:33:49;21.90;;;14.80;;
51618;SDS011;38518;53.164;5.430;2022-12-31T18:36:16;40.28;;;27.63;;
51618;SDS011;38518;53.164;5.430;2022-12-31T18:38:43;32.67;;;23.08;;
51618;SDS011;38518;53.164;5.430;2022-12-31T18:41:20;33.72;;;23.40;;
51618;SDS011;38518;53.164;5.430;2022-12-31T18:43:53;23.77;;;15.35;;
51618;SDS011;38518;53.164;5.430;2022-12-31T18:46:21;24.08;;;13.07;;
51618;SDS011;38518;53.164;5.430;2022-12-31T18:48:48;28.45;;;16.33;;
51618;SDS011;38518;53.164;5.430;2022-12-31T18:51:18;25.92;;;14.73;;
51618;SDS011;38518;53.164;5.430;2022-12-31T18:53:45;23.38;;;14.43;;
51618;SDS011;38518;53.164;5.430;2022-12-31T18:56:12;22.65;;;14.15;;
51618;SDS011;38518;53.164;5.430;2022-12-31T18:58:40;26.23;;;13.80;;
51618;SDS011;38518;53.164;5.430;2022-12-31T19:03:53;18.95;;;8.98;;
51618;SDS011;38518;53.164;5.430;2022-12-31T19:06:23;19.95;;;7.85;;
51618;SDS011;38518;53.164;5.430;2022-12-31T19:08:50;17.77;;;6.70;;
51618;SDS011;38518;53.164;5.430;2022-12-31T19:11:16;19.10;;;7.25;;
51618;SDS011;38518;53.164;5.430;2022-12-31T19:13:43;20.08;;;6.82;;
51618;SDS011;38518;53.164;5.430;2022-12-31T19:16:09;20.65;;;6.97;;
51618;SDS011;38518;53.164;5.430;2022-12-31T19:18:35;22.48;;;6.88;;
51618;SDS011;38518;53.164;5.430;2022-12-31T19:21:01;20.27;;;6.80;;
51618;SDS011;38518;53.164;5.430;2022-12-31T19:23:27;20.65;;;7.00;;
51618;SDS011;38518;53.164;5.430;2022-12-31T19:25:53;17.02;;;6.35;;
51618;SDS011;38518;53.164;5.430;2022-12-31T19:28:20;20.80;;;7.15;;
51618;SDS011;38518;53.164;5.430;2022-12-31T19:30:47;21.33;;;7.70;;
51618;SDS011;38518;53.164;5.430;2022-12-31T19:33:13;22.73;;;6.65;;
51618;SDS011;38518;53.164;5.430;2022-12-31T19:35:40;15.60;;;6.13;;